Nederlandse vliegveldverwachtingen (TAF)

Luchtvaartmeteorologische informatie voor operationeel gebruik en vluchtvoorbereiding is beschikbaar op www.luchtvaartmeteo.nl.

ZCZC
FT251700 EHAM     AMSTERDAM/SCHIPHOL   NLD   -3 m.
TAF EHAM 251715Z 2518/2624 20010KT 9999 SCT015 BKN022
    BECMG 2518/2521 02008KT
    TEMPO 2518/2522 6000 SHRA RA BKN015 FEW025CB
    PROB40 2519/2524 SCT008 BKN012
    BECMG 2612/2615 35012KT 7000 RA
    PROB40 TEMPO 2614/2618 SHRA BKN020 FEW025CB
    BECMG 2621/2624 SCT008 BKN012=

ZCZC
FT251700 EHBK     MAASTRICHT/MAASTRICHT-AACHEN   NLD   114 m.
TAF EHBK 251724Z 2518/2624 24015KT 9999 SCT030
    TEMPO 2518/2523 4000 RA SHRA BKN012 FEW018CB
    BECMG 2522/2601 28010KT 2000 RADZ BR BKN004
    PROB30 2600/2607 1200 DZRA BKN002
    BECMG 2601/2604 31010KT
    BECMG 2608/2611 34006KT 9999 NSW BKN018
    BECMG 2615/2618 5000 RA
    BECMG 2621/2624 2500 BKN005=

ZCZC
FT251700 EHLE     LELYSTAD/LELYSTAD   NLD   -3 m.
TAF EHLE 251715Z 2518/2624 16012KT 9999 SCT015 BKN020
    BECMG 2518/2521 09010KT
    PROB30 TEMPO 2518/2521 6000 SHRA RA BKN018 FEW025CB
    PROB40 2519/2524 SCT008 BKN012
    BECMG 2521/2524 01008KT
    BECMG 2612/2615 34012KT 7000 RA
    PROB40 TEMPO 2614/2618 SHRA BKN020 FEW025CB
    BECMG 2621/2624 SCT008 BKN012=

ZCZC
FT251700 EHRD     ROTTERDAM/THE HAGUE AIRPORT   NLD   -5 m.
TAF EHRD 251715Z 2518/2624 26015G25KT 9999 SCT015 BKN020
    BECMG 2518/2521 34010KT
    PROB30 TEMPO 2518/2606 6000 SHRA RA BKN018 FEW025CB
    PROB40 2520/2524 BKN008
    BECMG 2613/2616 7000 RA
    PROB40 TEMPO 2615/2618 SHRA BKN020 FEW025CB
    BECMG 2622/2624 SCT008 BKN012=

ZCZC
FT251700 EHGG RRA GRONINGEN/EELDE   NLD   5 m.
TAF EHGG 251729Z 2518/2624 14008KT 9999 SCT025
    BECMG 2523/2602 5000 MIFG BR
    PROB30 TEMPO 2601/2607 1200 BCFG
    BECMG 2606/2608 CAVOK
    BECMG 2612/2615 35010KT 6000 RA
    PROB40 TEMPO 2615/2617 4000 RA SHRA BKN010 SCT018CB
    PROB40 2621/2624 4000 BKN010=

ZCZC
FT251700 EHEH RRA EINDHOVEN/EINDHOVEN   NLD   22 m.
TAF EHEH 251747Z 2518/2624 21013G23KT 9999 SCT016 BKN030
    TEMPO 2518/2603 23018G28KT 4500 RA SHRA SCT009 SCT015CB
    BKN020
    BECMG 2521/2523 31012G22KT
    PROB40 TEMPO 2600/2608 3500 DZRA SCT004 BKN007
    BECMG 2605/2607 32008KT
    TEMPO 2618/2624 4500 RA SHRA SCT009 FEW012CB BKN018
    PROB30 TEMPO 2619/2622 36012G25KT 3500 SHRA TSRA SCT006
    SCT010CB BKN012=

ZCZC
FC252100 EHGR     GILZE-RIJEN/GILZE-RIJEN   NLD   14 m.
TAF EHGR 252100Z NIL=

ZCZC
FC252100 EHKD     DE KOOY/DE KOOY   NLD   1 m.
TAF EHKD 252100Z NIL=

ZCZC
FC252100 EHLW     LEEUWARDEN/LEEUWARDEN   NLD   1 m.
TAF EHLW 252039Z 2521/2609 06006KT 9999 FEW018 SCT030
    BECMG 2523/2601 VRB03KT
    PROB40 2602/2607 4000 BR MIFG=

ZCZC
FC252100 EHVK     VOLKEL/VOLKEL   NLD   21 m.
TAF EHVK 252048Z 2521/2609 18012KT 9999 SCT018 BKN040
    TEMPO 2518/2603 22015G25KT 4500 RA SHRA SCT007 SCT015CB
    BKN020
    BECMG 2521/2523 31010KT
    PROB40 TEMPO 2600/2607 3500 DZRA SCT004 BKN007=

ZCZC
FC252100 EHWO     WOENSDRECHT/WOENSDRECHT   NLD   19 m.
TAF EHWO 252100Z NIL=

25/09/2020 23.15 uur LT